Time;durP1;ratioP1;P1;durP2;ratioP2;P2;SDS_P1;SDS_P2;PMS_P1;PMS_P2;Temp;Humidity;BMP_temperature;BMP_pressure;BME280_temperature;BME280_humidity;BME280_pressure;Samples;Min_cycle;Max_cycle;Signal;HPM_P1;HPM_P2
2021/12/24 00:02:20;;;;;;;44.53;21.65;;;77.00;2227.20;;;;;;5092675;28;20028;-77
2021/12/24 00:04:46;;;;;;;;;;;77.10;2227.20;;;;;;5093626;28;20024;-83
2021/12/24 00:07:12;;;;;;;41.15;21.13;;;77.10;2227.20;;;;;;5093291;28;19904;-82
2021/12/24 00:09:39;;;;;;;;;;;77.10;2227.20;;;;;;5083719;28;20098;-82
2021/12/24 00:12:12;;;;;;;31.88;16.83;;;76.90;2227.20;;;;;;5067264;28;20121;-79
2021/12/24 00:14:42;;;;;;;47.47;22.25;;;77.00;2227.20;;;;;;5076058;28;20036;-83
2021/12/24 00:17:08;;;;;;;40.30;21.85;;;76.90;2227.20;;;;;;5081171;28;20031;-81
2021/12/24 00:19:45;;;;;;;40.15;21.65;;;76.90;2227.20;;;;;;5081343;28;20103;-83
2021/12/24 00:35:53;;;;;;;43.35;22.15;;;77.20;2227.20;;;;;;5016799;28;20081;-82
2021/12/24 00:38:19;;;;;;;44.05;22.13;;;77.10;2227.20;;;;;;5007175;28;20057;-83
2021/12/24 00:40:46;;;;;;;;;;;77.10;2227.20;;;;;;5013354;28;20052;-75
2021/12/24 00:43:14;;;;;;;33.72;16.55;;;77.10;2227.20;;;;;;5013886;28;20009;-77
2021/12/24 00:45:42;;;;;;;50.13;22.77;;;77.10;2227.20;;;;;;4993023;28;20060;-80
2021/12/24 00:48:11;;;;;;;41.70;21.92;;;77.20;2227.20;;;;;;5025369;28;20026;-81
2021/12/24 00:56:03;;;;;;;45.22;22.30;;;77.00;2227.20;;;;;;5020686;28;20044;-83
2021/12/24 00:58:30;;;;;;;43.10;22.42;;;77.00;2227.20;;;;;;4993145;28;20490;-84
2021/12/24 01:01:01;;;;;;;42.35;20.92;;;77.00;2227.20;;;;;;5010002;28;20022;-81
2021/12/24 01:03:27;;;;;;;41.80;21.38;;;77.10;2227.20;;;;;;5024732;28;20034;-83
2021/12/24 01:05:53;;;;;;;47.05;21.95;;;77.00;2227.20;;;;;;5057451;28;20075;-75
2021/12/24 01:08:19;;;;;;;45.90;22.77;;;77.10;2227.20;;;;;;5079602;28;20025;-75
2021/12/24 01:10:59;;;;;;;38.88;20.33;;;77.10;2227.20;;;;;;5084838;28;20024;-83
2021/12/24 01:13:26;;;;;;;41.90;23.13;;;77.10;2227.20;;;;;;5084086;28;20479;-79
2021/12/24 01:19:12;;;;;;;44.13;22.42;;;77.00;2227.20;;;;;;5088237;28;20084;-84
2021/12/24 01:23:52;;;;;;;46.28;22.67;;;77.20;2227.20;;;;;;5087889;28;20035;-84
2021/12/24 01:40:26;;;;;;;45.25;21.90;;;77.30;2227.20;;;;;;4990763;28;20064;-82
2021/12/24 01:42:54;;;;;;;40.65;22.65;;;77.30;2227.20;;;;;;4993662;28;20058;-82
2021/12/24 01:45:24;;;;;;;47.53;23.52;;;77.30;2227.20;;;;;;4993554;28;20089;-74
2021/12/24 01:47:54;;;;;;;48.97;23.92;;;77.40;2227.20;;;;;;4993907;28;20031;-82
2021/12/24 01:50:21;;;;;;;42.15;22.80;;;77.40;2227.20;;;;;;4993366;28;20042;-83
2021/12/24 01:52:49;;;;;;;46.80;23.35;;;77.40;2227.20;;;;;;4977615;28;20450;-75
2021/12/24 01:55:15;;;;;;;39.85;22.52;;;77.40;2227.20;;;;;;4993805;28;20026;-75
2021/12/24 01:57:42;;;;;;;46.50;23.63;;;77.40;2227.20;;;;;;4993862;28;20121;-80
2021/12/24 02:00:12;;;;;;;42.97;22.08;;;77.40;2227.20;;;;;;5039647;28;20091;-83
2021/12/24 02:02:38;;;;;;;45.08;23.17;;;77.40;2227.20;;;;;;5085952;28;20024;-75
2021/12/24 02:05:04;;;;;;;49.55;24.48;;;77.40;2227.20;;;;;;5086068;28;20364;-79
2021/12/24 02:07:30;;;;;;;44.58;22.50;;;77.40;2227.20;;;;;;5085828;28;20107;-76
2021/12/24 02:09:56;;;;;;;48.17;24.52;;;77.40;2227.20;;;;;;5084026;28;20426;-74
2021/12/24 02:12:26;;;;;;;;;;;77.30;2227.20;;;;;;5084872;28;20039;-74
2021/12/24 02:14:56;;;;;;;42.80;21.60;;;77.30;2227.20;;;;;;5085754;28;19995;-75
2021/12/24 02:28:22;;;;;;;45.15;21.60;;;77.30;2227.20;;;;;;5090427;28;20063;-75
2021/12/24 02:30:48;;;;;;;42.85;21.20;;;77.30;2227.20;;;;;;5067216;28;20467;-75
2021/12/24 02:33:14;;;;;;;40.47;22.20;;;77.40;2227.20;;;;;;5064648;28;20115;-80
2021/12/24 02:35:41;;;;;;;43.22;23.75;;;77.50;2227.20;;;;;;5085172;28;20475;-74
2021/12/24 02:38:06;;;;;;;;;;;77.50;2227.20;;;;;;5085632;28;20074;-79
2021/12/24 02:40:32;;;;;;;39.80;21.40;;;77.40;2227.20;;;;;;5082505;28;19908;-81
2021/12/24 02:42:59;;;;;;;;;;;77.40;2227.20;;;;;;5082927;28;20020;-75
2021/12/24 02:45:27;;;;;;;36.20;16.42;;;77.50;2227.20;;;;;;5086949;28;19960;-74
2021/12/24 02:55:34;;;;;;;45.72;22.67;;;77.40;2227.20;;;;;;5085229;28;20035;-76
2021/12/24 02:58:00;;;;;;;45.13;22.73;;;77.30;2227.20;;;;;;5082987;28;20467;-81
2021/12/24 03:00:27;;;;;;;;;;;77.40;2227.20;;;;;;5066107;28;20514;-74
2021/12/24 03:02:53;;;;;;;;;;;77.40;2227.20;;;;;;5064789;28;19905;-78
2021/12/24 03:05:21;;;;;;;35.77;17.10;;;77.40;2227.20;;;;;;5065984;28;19994;-73
2021/12/24 03:07:48;;;;;;;44.55;22.35;;;77.20;2227.20;;;;;;5083823;28;20017;-82
2021/12/24 03:10:17;;;;;;;42.67;20.92;;;77.30;2227.20;;;;;;5082521;28;20039;-75
2021/12/24 03:12:45;;;;;;;46.38;23.38;;;77.40;2227.20;;;;;;5064365;28;20025;-79
2021/12/24 03:15:14;;;;;;;48.75;23.98;;;77.40;2227.20;;;;;;5082533;28;20031;-74
2021/12/24 03:17:46;;;;;;;43.15;21.20;;;77.40;2227.20;;;;;;5063548;28;20464;-75
2021/12/24 03:20:12;;;;;;;42.08;21.63;;;77.40;2227.20;;;;;;5065127;28;20059;-75
2021/12/24 03:25:04;;;;;;;41.25;21.45;;;77.60;2227.20;;;;;;5082167;28;19916;-74
2021/12/24 03:27:30;;;;;;;41.05;22.20;;;77.60;2227.20;;;;;;5084673;28;20511;-76
2021/12/24 03:29:57;;;;;;;43.60;19.67;;;77.40;2227.20;;;;;;5081891;28;20016;-75
2021/12/24 03:32:24;;;;;;;39.75;21.63;;;77.60;2227.20;;;;;;5083236;28;20024;-83
2021/12/24 03:34:50;;;;;;;34.97;20.40;;;77.50;2227.20;;;;;;5081387;28;20495;-75
2021/12/24 03:37:15;;;;;;;40.63;21.42;;;77.50;2227.20;;;;;;5080955;28;20033;-76
2021/12/24 03:39:41;;;;;;;41.35;21.17;;;77.60;2227.20;;;;;;5083632;28;20701;-83
2021/12/24 03:42:08;;;;;;;37.13;20.13;;;77.60;2227.20;;;;;;5081112;28;20058;-82
2021/12/24 03:44:42;;;;;;;37.25;20.63;;;77.70;2227.20;;;;;;5084008;28;20087;-82
2021/12/24 03:52:16;;;;;;;;;;;102.40;2227.20;;;;;;5084020;28;20035;-75
2021/12/24 03:54:56;;;;;;;40.25;20.48;;;102.40;2227.20;;;;;;5081844;28;19904;-75
2021/12/24 03:57:29;;;;;;;38.90;21.83;;;102.40;2227.20;;;;;;5081975;28;20036;-74
2021/12/24 03:59:57;;;;;;;44.20;21.17;;;102.40;2227.20;;;;;;5063475;28;20119;-79
2021/12/24 04:02:23;;;;;;;43.95;21.15;;;77.70;2227.20;;;;;;5081970;28;20032;-82
2021/12/24 04:04:49;;;;;;;39.45;20.75;;;102.40;2227.20;;;;;;5085037;28;20027;-76
2021/12/24 04:07:15;;;;;;;;;;;77.70;2227.20;;;;;;5066388;28;20032;-79
2021/12/24 04:09:49;;;;;;;37.58;20.33;;;77.70;2227.20;;;;;;5084048;28;19971;-83
2021/12/24 04:12:15;;;;;;;41.08;20.63;;;77.60;2227.20;;;;;;5080998;28;20028;-75
2021/12/24 04:14:41;;;;;;;35.40;19.77;;;77.60;2227.20;;;;;;5084542;28;20097;-75
2021/12/24 04:17:07;;;;;;;;;;;77.60;2227.20;;;;;;5084594;28;20031;-82
2021/12/24 04:24:56;;;;;;;46.53;22.00;;;77.60;2227.20;;;;;;5082386;28;20019;-80
2021/12/24 04:27:27;;;;;;;40.13;21.20;;;77.70;2227.20;;;;;;5089548;28;20040;-75
2021/12/24 04:30:00;;;;;;;49.70;22.80;;;102.40;2227.20;;;;;;5063218;28;20506;-75
2021/12/24 04:32:46;;;;;;;42.90;20.58;;;102.40;2227.20;;;;;;5063371;28;20028;-74
2021/12/24 04:51:27;;;;;;;34.05;18.05;;;103.00;2227.20;;;;;;5085504;28;20048;-74
2021/12/24 05:02:46;;;;;;;33.50;17.95;;;102.90;2227.20;;;;;;5084304;28;20035;-84
2021/12/24 05:05:19;;;;;;;43.72;19.45;;;103.00;2227.20;;;;;;5092355;28;20043;-77
2021/12/24 05:10:18;;;;;;;37.15;18.30;;;103.20;2227.20;;;;;;5084761;28;20075;-74
2021/12/24 05:12:44;;;;;;;35.20;18.92;;;103.00;2227.20;;;;;;5087751;28;20024;-83
2021/12/24 05:15:11;;;;;;;38.58;19.70;;;103.10;2227.20;;;;;;5087454;28;20388;-83
2021/12/24 05:23:03;;;;;;;38.15;18.80;;;103.20;2227.20;;;;;;5083794;28;20392;-80
2021/12/24 05:25:29;;;;;;;31.23;17.58;;;103.10;2227.20;;;;;;5088155;28;20020;-82
2021/12/24 05:27:55;;;;;;;36.53;20.27;;;103.00;2227.20;;;;;;5084183;28;20080;-75
2021/12/24 05:30:22;;;;;;;35.28;18.45;;;103.10;2227.20;;;;;;5084430;28;20020;-83
2021/12/24 05:32:48;;;;;;;34.90;19.50;;;103.10;2227.20;;;;;;5085996;28;20103;-82
2021/12/24 05:35:14;;;;;;;;;;;103.00;2227.20;;;;;;5086196;28;20074;-74
2021/12/24 05:37:39;;;;;;;31.48;17.45;;;103.00;2227.20;;;;;;5086889;28;19912;-81
2021/12/24 05:40:06;;;;;;;;;;;103.00;2227.20;;;;;;5088306;28;20395;-82
2021/12/24 05:42:33;;;;;;;46.75;20.55;;;103.00;2227.20;;;;;;5090661;28;20418;-77
2021/12/24 05:45:04;;;;;;;32.03;18.10;;;103.00;2227.20;;;;;;5089428;28;20043;-75
2021/12/24 05:47:30;;;;;;;31.35;18.25;;;103.10;2227.20;;;;;;5067056;28;20445;-77
2021/12/24 05:49:56;;;;;;;42.03;21.45;;;103.00;2227.20;;;;;;5083227;28;20025;-74
2021/12/24 05:52:22;;;;;;;;;;;102.90;2227.20;;;;;;5076036;28;20024;-86
2021/12/24 05:54:47;;;;;;;37.35;19.88;;;103.00;2227.20;;;;;;5057438;28;20271;-83
2021/12/24 05:57:13;;;;;;;;;;;103.10;2227.20;;;;;;5075620;28;20075;-74
2021/12/24 05:59:39;;;;;;;35.25;18.48;;;103.10;2227.20;;;;;;5056976;28;20384;-75
2021/12/24 06:02:04;;;;;;;;;;;103.20;2227.20;;;;;;5075405;28;20028;-75
2021/12/24 06:04:30;;;;;;;36.55;18.58;;;103.10;2227.20;;;;;;5075187;28;19911;-77
2021/12/24 06:06:56;;;;;;;;;;;103.10;2227.20;;;;;;5075223;28;20491;-79
2021/12/24 06:09:22;;;;;;;41.58;20.23;;;103.20;2227.20;;;;;;5074972;28;19905;-78
2021/12/24 06:11:48;;;;;;;;;;;103.20;2227.20;;;;;;5057096;28;20032;-74
2021/12/24 06:14:13;;;;;;;35.28;18.35;;;103.20;2227.20;;;;;;5074742;28;19915;-77
2021/12/24 06:16:49;;;;;;;;;;;103.20;2227.20;;;;;;5074889;28;20107;-76
2021/12/24 06:19:16;;;;;;;32.90;16.73;;;103.30;2227.20;;;;;;5074548;28;19966;-76
2021/12/24 06:21:43;;;;;;;30.02;18.60;;;103.30;2227.20;;;;;;5056219;28;20447;-75
2021/12/24 06:24:12;;;;;;;40.35;19.75;;;103.30;2227.20;;;;;;5056327;28;20032;-75
2021/12/24 06:26:38;;;;;;;32.78;18.13;;;128.10;2252.80;;;;;;5074285;28;20091;-76
2021/12/24 06:29:04;;;;;;;;;;;128.10;2252.80;;;;;;5074742;28;20025;-74
2021/12/24 06:31:30;;;;;;;34.65;17.60;;;128.20;2252.80;;;;;;5074176;28;19915;-74
2021/12/24 06:33:55;;;;;;;;;;;128.20;2252.80;;;;;;5094381;28;20020;-76
2021/12/24 06:36:21;;;;;;;29.65;17.92;;;128.30;2252.80;;;;;;5094553;28;20401;-77
2021/12/24 06:38:46;;;;;;;;;;;128.40;2252.80;;;;;;5094757;28;20039;-78
2021/12/24 06:41:12;;;;;;;38.10;19.88;;;128.40;2252.80;;;;;;5085772;28;19959;-76
2021/12/24 06:43:38;;;;;;;;;;;128.50;2252.80;;;;;;5085881;28;20020;-79
2021/12/24 06:46:10;;;;;;;33.95;18.05;;;128.60;2252.80;;;;;;5094262;28;19907;-75
2021/12/24 06:48:36;;;;;;;33.67;16.65;;;128.60;2252.80;;;;;;5094404;28;20022;-76
2021/12/24 06:51:03;;;;;;;36.50;17.65;;;128.70;2252.80;;;;;;5076044;28;20107;-79
2021/12/24 06:53:29;;;;;;;34.53;17.42;;;128.70;2252.80;;;;;;5094325;28;20024;-81
2021/12/24 06:55:55;;;;;;;33.63;19.00;;;128.80;2252.80;;;;;;5094255;28;20103;-77
2021/12/24 06:58:20;;;;;;;;;;;128.90;2252.80;;;;;;5095028;28;20043;-79
2021/12/24 07:00:46;;;;;;;29.55;17.00;;;128.90;2252.80;;;;;;5094088;28;19938;-79
2021/12/24 07:03:12;;;;;;;;;;;128.90;2252.80;;;;;;5075869;28;20085;-79
2021/12/24 07:05:37;;;;;;;32.53;16.27;;;153.60;2252.80;;;;;;5093811;28;19987;-75
2021/12/24 07:08:03;;;;;;;;;;;153.60;2252.80;;;;;;5094375;28;20464;-77
2021/12/24 07:10:29;;;;;;;32.65;18.00;;;153.60;2252.80;;;;;;5091687;28;19988;-79
2021/12/24 07:12:55;;;;;;;;;;;128.90;2252.80;;;;;;5083432;28;20020;-77
2021/12/24 07:15:21;;;;;;;34.50;16.15;;;128.90;2252.80;;;;;;5084102;28;19908;-74
2021/12/24 07:17:47;;;;;;;35.90;18.90;;;128.90;2252.80;;;;;;5092579;28;20388;-73
2021/12/24 07:20:13;;;;;;;40.10;21.25;;;153.60;2252.80;;;;;;5092175;28;20016;-80
2021/12/24 07:22:40;;;;;;;35.65;19.58;;;153.60;2252.80;;;;;;5090028;28;20028;-79
2021/12/24 07:25:07;;;;;;;43.00;20.63;;;153.70;2252.80;;;;;;5068547;28;20506;-77
2021/12/24 07:27:34;;;;;;;35.03;18.83;;;153.70;2252.80;;;;;;5066412;28;20048;-74
2021/12/24 07:29:59;;;;;;;35.83;19.75;;;153.80;2252.80;;;;;;5062072;28;20035;-80
2021/12/24 07:32:25;;;;;;;32.25;16.88;;;153.80;2252.80;;;;;;5062847;28;20480;-77
2021/12/24 07:34:51;;;;;;;;;;;153.90;2252.80;;;;;;5063942;28;20047;-79
2021/12/24 07:37:17;;;;;;;34.65;17.15;;;153.80;2252.80;;;;;;5065898;28;19916;-75
2021/12/24 07:39:43;;;;;;;39.50;18.13;;;154.00;2252.80;;;;;;5065781;28;20020;-77
2021/12/24 07:42:08;;;;;;;;;;;154.00;2252.80;;;;;;5062853;28;20038;-78
2021/12/24 07:44:35;;;;;;;45.05;23.05;;;154.10;2252.80;;;;;;5061191;28;20000;-76
2021/12/24 07:47:05;;;;;;;35.45;16.10;;;154.10;2252.80;;;;;;5063674;28;20020;-78
2021/12/24 07:49:37;;;;;;;30.60;17.77;;;154.00;2252.80;;;;;;5071155;28;20028;-75
2021/12/24 07:54:30;;;;;;;;;;;154.50;2252.80;;;;;;5057260;28;20028;-75
2021/12/24 07:56:56;;;;;;;;;;;179.20;2252.80;;;;;;5062435;28;20007;-74
2021/12/24 07:59:22;;;;;;;37.33;16.50;;;179.20;2252.80;;;;;;5065685;28;19974;-73
2021/12/24 08:01:48;;;;;;;;;;;179.30;2252.80;;;;;;5072558;28;20056;-73
2021/12/24 08:04:14;;;;;;;27.38;13.32;;;179.60;2252.80;;;;;;5071501;28;19966;-74
2021/12/24 08:06:41;;;;;;;28.02;15.15;;;179.40;2252.80;;;;;;5052360;28;20025;-73
2021/12/24 08:09:07;;;;;;;;;;;179.50;2252.80;;;;;;5057534;28;20025;-73
2021/12/24 08:11:33;;;;;;;23.25;12.48;;;179.60;2252.80;;;;;;5072255;28;19927;-74
2021/12/24 08:14:01;;;;;;;28.00;12.85;;;179.60;2252.80;;;;;;5071603;28;20021;-74
2021/12/24 08:16:28;;;;;;;25.10;14.25;;;179.70;2252.80;;;;;;5070492;28;20029;-77
2021/12/24 08:18:54;;;;;;;43.80;22.60;;;179.80;2252.80;;;;;;5065973;28;20041;-76
2021/12/24 08:21:20;;;;;;;;;;;179.80;2252.80;;;;;;5051197;28;20457;-75
2021/12/24 08:23:47;;;;;;;43.40;19.85;;;179.80;2252.80;;;;;;5051771;28;19995;-75
2021/12/24 08:26:13;;;;;;;62.25;25.60;;;179.90;2252.80;;;;;;5053786;28;20124;-74
2021/12/24 08:28:39;;;;;;;24.35;13.43;;;179.90;2252.80;;;;;;5053935;28;20472;-74
2021/12/24 08:31:05;;;;;;;;;;;180.00;2252.80;;;;;;5072418;28;20154;-74
2021/12/24 08:33:34;;;;;;;31.40;16.25;;;180.00;2252.80;;;;;;5071842;28;19905;-74
2021/12/24 08:36:00;;;;;;;28.52;14.32;;;180.10;2252.80;;;;;;5072183;28;20121;-73
2021/12/24 08:38:25;;;;;;;;;;;180.10;2252.80;;;;;;5072293;28;20060;-73
2021/12/24 08:40:51;;;;;;;29.65;14.95;;;204.80;2252.80;;;;;;5071849;28;19912;-73
2021/12/24 08:43:17;;;;;;;;;;;180.10;2252.80;;;;;;5072030;28;20023;-74
2021/12/24 08:45:43;;;;;;;36.17;17.55;;;180.10;2252.80;;;;;;5071908;28;19905;-74
2021/12/24 08:48:08;;;;;;;;;;;180.10;2252.80;;;;;;5053776;28;20035;-76
2021/12/24 08:50:34;;;;;;;32.03;15.85;;;204.80;2252.80;;;;;;5071660;28;19965;-76
2021/12/24 08:53:00;;;;;;;;;;;204.80;2252.80;;;;;;5072354;28;20032;-74
2021/12/24 08:55:25;;;;;;;29.10;13.65;;;204.80;2252.80;;;;;;5071647;28;19904;-73
2021/12/24 08:57:51;;;;;;;;;;;204.90;2252.80;;;;;;5072121;28;20040;-73
2021/12/24 09:00:19;;;;;;;31.63;15.95;;;205.00;2252.80;;;;;;5071681;28;19932;-75
2021/12/24 09:02:45;;;;;;;50.13;22.10;;;205.10;2252.80;;;;;;5071803;28;20063;-74
2021/12/24 09:05:11;;;;;;;;;;;205.10;2252.80;;;;;;5054172;28;20040;-73
2021/12/24 09:07:37;;;;;;;48.67;22.02;;;205.20;2252.80;;;;;;5071867;28;19912;-74
2021/12/24 09:10:03;;;;;;;;;;;205.30;2252.80;;;;;;5071887;28;20021;-76
2021/12/24 09:12:29;;;;;;;34.13;15.93;;;205.40;2252.80;;;;;;5054028;28;20280;-74
2021/12/24 09:14:55;;;;;;;;;;;205.50;2252.80;;;;;;5072925;28;20032;-74
2021/12/24 09:17:21;;;;;;;32.70;15.82;;;205.70;2252.80;;;;;;5071740;28;19921;-81
2021/12/24 09:19:50;;;;;;;31.58;16.92;;;205.70;2252.80;;;;;;5083859;28;20024;-75
2021/12/24 09:22:17;;;;;;;30.75;17.00;;;205.70;2252.80;;;;;;5092034;28;20437;-75
2021/12/24 09:24:50;;;;;;;41.05;19.52;;;230.50;2252.80;;;;;;5073626;28;20081;-74
2021/12/24 09:27:16;;;;;;;32.20;16.58;;;230.60;2252.80;;;;;;5091775;28;20044;-75
2021/12/24 09:29:42;;;;;;;34.90;19.80;;;230.80;2252.80;;;;;;5091950;28;20028;-78
2021/12/24 09:32:08;;;;;;;;;;;231.00;2252.80;;;;;;5092068;28;20027;-75
2021/12/24 09:34:34;;;;;;;28.73;15.57;;;231.20;2252.80;;;;;;5092615;28;19904;-74
2021/12/24 09:36:59;;;;;;;;;;;231.30;2252.80;;;;;;5095974;28;20028;-74
2021/12/24 09:39:25;;;;;;;29.27;14.32;;;231.30;2252.80;;;;;;5095000;28;19947;-74
2021/12/24 09:41:51;;;;;;;;;;;256.00;2252.80;;;;;;5095549;28;20047;-74
2021/12/24 09:44:17;;;;;;;24.85;12.10;;;256.10;2252.80;;;;;;5095003;28;20275;-74
2021/12/24 09:46:43;;;;;;;;;;;256.20;2252.80;;;;;;5095578;28;20537;-75
2021/12/24 09:49:10;;;;;;;19.55;10.43;;;256.50;2252.80;;;;;;5094805;28;19911;-76
2021/12/24 09:51:38;;;;;;;16.27;9.18;;;256.70;2252.80;;;;;;5095080;28;20043;-74
2021/12/24 09:54:12;;;;;;;16.90;9.70;;;256.90;2252.80;;;;;;5095038;28;20141;-75
2021/12/24 09:56:38;;;;;;;23.13;10.55;;;281.60;2278.40;;;;;;5094670;28;20559;-74
2021/12/24 09:59:04;;;;;;;20.50;12.18;;;281.60;2278.40;;;;;;5095005;28;20024;-74
2021/12/24 10:01:32;;;;;;;19.85;10.45;;;281.60;2278.40;;;;;;5094748;28;20031;-74
2021/12/24 10:04:08;;;;;;;20.02;10.38;;;281.60;2278.40;;;;;;5095138;28;20387;-73
2021/12/24 10:06:34;;;;;;;22.17;11.57;;;256.90;2252.80;;;;;;5094693;28;20020;-73
2021/12/24 10:09:12;;;;;;;24.88;12.45;;;281.80;2278.40;;;;;;5095274;28;20028;-73
2021/12/24 10:11:49;;;;;;;23.58;12.77;;;256.90;2252.80;;;;;;5094649;28;20099;-73
2021/12/24 10:14:17;;;;;;;24.67;13.57;;;256.90;2252.80;;;;;;5094492;28;20020;-73
2021/12/24 10:16:49;;;;;;;27.48;14.18;;;256.80;2252.80;;;;;;5094580;28;20016;-76
2021/12/24 10:19:15;;;;;;;32.95;16.20;;;256.70;2252.80;;;;;;5068751;28;20079;-74
2021/12/24 10:21:44;;;;;;;30.58;15.43;;;256.70;2252.80;;;;;;5074245;28;20082;-73
2021/12/24 10:24:18;;;;;;;26.95;14.25;;;281.60;2278.40;;;;;;5074080;28;20029;-74
2021/12/24 10:26:49;;;;;;;25.92;13.65;;;281.80;2278.40;;;;;;5073582;28;20052;-74
2021/12/24 10:29:21;;;;;;;27.40;13.75;;;282.10;2278.40;;;;;;5074150;28;20020;-78
2021/12/24 10:31:49;;;;;;;32.70;15.25;;;282.30;2278.40;;;;;;5074074;28;20464;-73
2021/12/24 10:34:23;;;;;;;26.80;13.95;;;307.20;2304.00;;;;;;5074191;28;20036;-74
2021/12/24 10:36:49;;;;;;;29.33;14.05;;;307.40;2278.40;;;;;;5073943;28;20060;-75
2021/12/24 10:39:16;;;;;;;26.45;14.27;;;307.60;2252.80;;;;;;5073677;28;20059;-74
2021/12/24 10:41:44;;;;;;;27.95;14.73;;;307.60;2252.80;;;;;;5073817;28;20047;-74
2021/12/24 10:44:22;;;;;;;24.65;14.05;;;307.60;2252.80;;;;;;5073607;28;20028;-74
2021/12/24 10:47:01;;;;;;;25.55;14.43;;;307.60;2227.20;;;;;;5073631;28;20028;-74
2021/12/24 10:50:24;;;;;;;31.20;17.02;;;307.90;2201.60;;;;;;5073805;28;20024;-75
2021/12/24 10:54:56;;;;;;;27.15;14.07;;;307.80;2201.60;;;;;;5073639;28;20039;-74
2021/12/24 10:57:25;;;;;;;24.80;12.80;;;307.80;2201.60;;;;;;5073434;28;20028;-75
2021/12/24 10:59:55;;;;;;;28.00;15.45;;;307.80;2227.20;;;;;;5073327;28;20024;-76
2021/12/24 11:02:27;;;;;;;30.88;16.73;;;307.90;2201.60;;;;;;5073426;28;20047;-74
2021/12/24 11:04:53;;;;;;;27.58;15.55;;;308.00;2201.60;;;;;;5073284;28;20054;-75
2021/12/24 11:07:37;;;;;;;27.23;15.75;;;332.80;2176.00;;;;;;5073640;28;20040;-76
2021/12/24 11:10:30;;;;;;;23.08;13.43;;;333.10;2150.40;;;;;;5073344;28;20024;-74
2021/12/24 11:13:02;;;;;;;29.75;14.85;;;333.20;2150.40;;;;;;5073041;28;20025;-76
2021/12/24 11:15:31;;;;;;;26.98;14.98;;;333.20;2150.40;;;;;;5073209;28;20468;-74
2021/12/24 11:18:06;;;;;;;25.90;13.80;;;333.30;2150.40;;;;;;5073513;28;20031;-75
2021/12/24 11:20:33;;;;;;;25.63;13.52;;;333.40;2124.80;;;;;;5091022;28;20024;-80
2021/12/24 11:23:00;;;;;;;25.25;13.25;;;333.50;2099.20;;;;;;5075674;28;20380;-75
2021/12/24 11:25:34;;;;;;;26.77;16.17;;;333.50;2099.20;;;;;;5093644;28;20473;-78
2021/12/24 11:28:02;;;;;;;28.85;16.20;;;333.70;2099.20;;;;;;5075279;28;20408;-74
2021/12/24 11:30:29;;;;;;;34.90;17.95;;;333.70;2073.60;;;;;;5074493;28;20109;-79
2021/12/24 11:32:56;;;;;;;27.27;15.95;;;333.70;2073.60;;;;;;5093624;28;20035;-78
2021/12/24 11:35:22;;;;;;;32.47;19.30;;;358.40;2073.60;;;;;;5075528;28;20031;-75
2021/12/24 11:37:49;;;;;;;28.50;17.55;;;358.50;2073.60;;;;;;5075344;28;20035;-75
2021/12/24 11:40:17;;;;;;;24.20;15.40;;;358.50;2073.60;;;;;;5075314;28;20106;-76
2021/12/24 11:43:04;;;;;;;28.60;15.23;;;358.50;2073.60;;;;;;5093316;28;20020;-77
2021/12/24 11:45:31;;;;;;;36.08;16.35;;;358.50;2099.20;;;;;;5101992;28;20020;-77
2021/12/24 11:47:57;;;;;;;27.20;14.48;;;358.50;2099.20;;;;;;5102500;28;20036;-77
2021/12/24 11:50:24;;;;;;;23.50;14.07;;;358.50;2099.20;;;;;;5093438;28;20024;-79
2021/12/24 11:52:52;;;;;;;24.33;12.65;;;358.40;2124.80;;;;;;5093192;28;20027;-79
2021/12/24 11:55:19;;;;;;;22.80;13.15;;;358.50;2124.80;;;;;;5092759;28;20047;-75
2021/12/24 11:57:59;;;;;;;22.63;12.50;;;358.50;2124.80;;;;;;5092578;28;20111;-76
2021/12/24 12:00:31;;;;;;;23.70;12.15;;;358.50;2150.40;;;;;;5093076;28;20035;-75
2021/12/24 12:02:57;;;;;;;22.10;12.13;;;358.40;2176.00;;;;;;5074394;28;20403;-80
2021/12/24 12:05:35;;;;;;;27.88;11.23;;;333.70;2176.00;;;;;;5093047;28;20136;-81
2021/12/24 12:08:23;;;;;;;22.17;12.02;;;333.70;2201.60;;;;;;5092831;28;20036;-79
2021/12/24 12:10:51;;;;;;;19.05;10.35;;;333.70;2227.20;;;;;;5092736;28;20024;-79
2021/12/24 12:13:36;;;;;;;23.60;10.85;;;333.70;2201.60;;;;;;5092986;28;20016;-80
2021/12/24 12:16:03;;;;;;;19.17;10.88;;;333.70;2227.20;;;;;;5074906;28;20437;-80
2021/12/24 12:18:32;;;;;;;19.58;11.02;;;333.60;2252.80;;;;;;5074821;28;20027;-75
2021/12/24 12:21:23;;;;;;;13.95;9.10;;;333.60;2278.40;;;;;;5074931;28;20430;-80
2021/12/24 12:26:46;;;;;;;18.13;9.25;;;358.60;2176.00;;;;;;5092260;28;20071;-75
2021/12/24 12:29:42;;;;;;;7.47;4.55;;;358.80;2176.00;;;;;;5092990;28;20136;-75
2021/12/24 12:32:17;;;;;;;9.95;4.13;;;358.80;2176.00;;;;;;5092799;28;20024;-75
2021/12/24 12:34:46;;;;;;;8.02;2.63;;;358.80;2176.00;;;;;;5092380;28;20036;-80
2021/12/24 12:37:16;;;;;;;9.00;3.00;;;358.90;2150.40;;;;;;5092731;28;20099;-79
2021/12/24 12:39:43;;;;;;;6.90;2.92;;;358.90;2150.40;;;;;;5092550;28;20016;-75
2021/12/24 12:42:09;;;;;;;5.38;2.78;;;358.90;2150.40;;;;;;5092447;28;20032;-79
2021/12/24 12:44:39;;;;;;;6.97;3.55;;;359.00;2150.40;;;;;;5092702;28;20023;-75
2021/12/24 12:47:27;;;;;;;6.57;3.42;;;359.00;2150.40;;;;;;5092462;28;20032;-75
2021/12/24 12:50:27;;;;;;;10.45;4.00;;;359.00;2150.40;;;;;;5074406;28;20035;-81
2021/12/24 12:53:21;;;;;;;12.63;8.32;;;359.00;2150.40;;;;;;5050192;28;20044;-79
2021/12/24 12:55:48;;;;;;;6.88;3.35;;;359.00;2150.40;;;;;;5039404;28;20503;-76
2021/12/24 12:58:22;;;;;;;6.30;3.90;;;359.00;2150.40;;;;;;5050150;28;20083;-77
2021/12/24 13:01:04;;;;;;;6.00;3.08;;;359.00;2150.40;;;;;;5049229;28;20029;-78
2021/12/24 13:03:32;;;;;;;7.07;2.83;;;359.00;2150.40;;;;;;5050256;28;20036;-79
2021/12/24 13:06:00;;;;;;;5.32;2.38;;;359.00;2150.40;;;;;;5050068;28;20093;-75
2021/12/24 13:08:32;;;;;;;7.57;2.53;;;359.00;2150.40;;;;;;5049714;28;20136;-75
2021/12/24 13:11:10;;;;;;;13.80;4.93;;;359.00;2176.00;;;;;;5052869;28;20048;-79
2021/12/24 13:13:55;;;;;;;10.48;3.80;;;359.00;2176.00;;;;;;5053891;28;20116;-78
2021/12/24 13:16:37;;;;;;;8.25;6.95;;;359.00;2176.00;;;;;;5037298;28;20086;-74
2021/12/24 13:24:17;;;;;;;5.93;2.35;;;358.90;2176.00;;;;;;5053643;28;20464;-77
2021/12/24 13:26:45;;;;;;;6.00;2.75;;;358.90;2201.60;;;;;;5052446;28;20427;-77
2021/12/24 13:29:17;;;;;;;7.15;3.67;;;358.70;2176.00;;;;;;5087336;28;20040;-79
2021/12/24 13:31:56;;;;;;;27.17;11.68;;;358.50;2176.00;;;;;;5096266;28;20479;-80
2021/12/24 13:34:24;;;;;;;25.75;12.52;;;358.40;2227.20;;;;;;5095857;28;20032;-76
2021/12/24 13:36:50;;;;;;;11.15;6.13;;;333.70;2252.80;;;;;;5096134;28;20020;-78
2021/12/24 13:39:22;;;;;;;9.68;5.88;;;333.60;2278.40;;;;;;5077870;28;20024;-77
2021/12/24 13:41:58;;;;;;;9.68;5.85;;;333.50;2304.00;;;;;;5077604;28;20020;-76
2021/12/24 13:44:29;;;;;;;20.38;10.60;;;333.40;2329.60;;;;;;5095607;28;20024;-79
2021/12/24 13:47:40;;;;;;;22.85;11.15;;;333.30;2329.60;;;;;;5095532;28;20036;-75
2021/12/24 13:50:31;;;;;;;29.40;13.93;;;333.30;2329.60;;;;;;5088358;28;20028;-74
2021/12/24 13:55:46;;;;;;;40.55;23.35;;;333.20;2329.60;;;;;;5095328;28;20022;-78
2021/12/24 13:58:22;;;;;;;58.88;31.08;;;333.20;2329.60;;;;;;5067762;28;20033;-78
2021/12/24 14:00:52;;;;;;;;;;;333.20;2329.60;;;;;;5079826;28;20472;-79
2021/12/24 14:03:23;;;;;;;30.75;15.10;;;333.10;2329.60;;;;;;5074712;28;19904;-76
2021/12/24 14:05:51;;;;;;;31.98;14.13;;;333.10;2329.60;;;;;;5067513;28;20028;-78
2021/12/24 14:08:19;;;;;;;38.15;18.50;;;333.00;2329.60;;;;;;5074785;28;20528;-76
2021/12/24 14:10:47;;;;;;;33.80;19.48;;;333.00;2329.60;;;;;;5074774;28;20048;-75
2021/12/24 14:13:24;;;;;;;42.00;21.83;;;332.90;2329.60;;;;;;5079793;28;20024;-75
2021/12/24 14:18:42;;;;;;;33.08;18.60;;;332.80;2329.60;;;;;;5095061;28;20023;-79
2021/12/24 14:24:14;;;;;;;25.25;15.40;;;308.10;2304.00;;;;;;5095253;28;20016;-78
2021/12/24 14:26:46;;;;;;;37.40;20.00;;;308.10;2304.00;;;;;;5094174;28;20048;-79
2021/12/24 14:29:12;;;;;;;30.75;18.90;;;308.00;2304.00;;;;;;5094706;28;20036;-77
2021/12/24 14:31:55;;;;;;;38.75;20.98;;;307.90;2304.00;;;;;;5078780;28;20050;-75
2021/12/24 14:34:29;;;;;;;30.75;17.63;;;307.90;2304.00;;;;;;5074804;28;20059;-75